Time;durP1;ratioP1;P1;durP2;ratioP2;P2;SDS_P1;SDS_P2;PMS_P1;PMS_P2;Temp;Humidity;BMP_temperature;BMP_pressure;BME280_temperature;BME280_humidity;BME280_pressure;Samples;Min_cycle;Max_cycle;Signal;HPM_P1;HPM_P2
2022/08/14 00:01:58;;;;;;;6.15;2.80;;;23.40;64.60;;;;;;7339198;19;109656;-85
2022/08/14 00:04:28;;;;;;;5.80;2.88;;;23.40;64.60;;;;;;7341056;19;111425;-84
2022/08/14 00:07:09;;;;;;;6.72;3.00;;;23.40;64.70;;;;;;7341620;19;109819;-84
2022/08/14 00:09:37;;;;;;;8.65;2.78;;;23.30;64.60;;;;;;7341488;19;110763;-85
2022/08/14 00:12:23;;;;;;;3.53;2.58;;;23.30;64.80;;;;;;7339256;19;111618;-85
2022/08/14 00:15:15;;;;;;;6.78;2.72;;;23.20;64.90;;;;;;7341023;19;109558;-84
2022/08/14 00:17:44;;;;;;;6.70;2.38;;;23.20;64.80;;;;;;7343147;19;112349;-85
2022/08/14 00:20:22;;;;;;;4.82;2.80;;;23.20;65.00;;;;;;7342048;19;110945;-85
2022/08/14 00:23:03;;;;;;;5.18;2.70;;;23.10;65.40;;;;;;7338818;19;110557;-84
2022/08/14 00:25:41;;;;;;;4.93;2.50;;;23.10;65.50;;;;;;7340477;19;111521;-85
2022/08/14 00:28:10;;;;;;;4.82;2.28;;;23.00;65.80;;;;;;7338961;19;109514;-85
2022/08/14 00:30:44;;;;;;;6.40;2.65;;;22.90;66.10;;;;;;7340623;19;110827;-85
2022/08/14 00:33:12;;;;;;;5.82;2.67;;;22.90;66.60;;;;;;7338799;19;110768;-85
2022/08/14 00:35:42;;;;;;;3.20;2.45;;;22.80;66.60;;;;;;7337572;19;109446;-85
2022/08/14 00:38:29;;;;;;;6.60;2.50;;;22.70;66.60;;;;;;7339250;19;111219;-85
2022/08/14 00:40:58;;;;;;;2.95;2.20;;;22.70;66.70;;;;;;7341964;19;111256;-85
2022/08/14 00:43:25;;;;;;;3.28;2.55;;;22.70;66.90;;;;;;7340011;19;110435;-85
2022/08/14 00:46:02;;;;;;;4.18;2.72;;;22.60;67.10;;;;;;7339561;19;110328;-85
2022/08/14 00:48:31;;;;;;;6.70;2.88;;;22.60;67.30;;;;;;7339985;19;109422;-85
2022/08/14 00:51:05;;;;;;;3.67;2.60;;;22.50;68.00;;;;;;7340419;19;110821;-85
2022/08/14 00:53:33;;;;;;;4.25;2.40;;;22.50;67.60;;;;;;7339499;19;111340;-85
2022/08/14 00:56:01;;;;;;;9.35;2.58;;;22.50;67.40;;;;;;7338365;19;109475;-85
2022/08/14 00:58:33;;;;;;;6.55;2.50;;;22.40;68.00;;;;;;7339384;19;111465;-85
2022/08/14 01:01:08;;;;;;;4.68;2.58;;;22.30;68.70;;;;;;7338081;19;111269;-85
2022/08/14 01:03:38;;;;;;;26.98;3.50;;;22.30;68.40;;;;;;7342964;19;109170;-85
2022/08/14 01:06:16;;;;;;;5.32;2.55;;;22.30;69.50;;;;;;7340423;19;111173;-84
2022/08/14 01:08:44;;;;;;;6.03;2.50;;;22.20;69.20;;;;;;7340016;19;109251;-85
2022/08/14 01:11:24;;;;;;;5.68;2.80;;;22.10;70.60;;;;;;7339221;19;109878;-85
2022/08/14 01:13:59;;;;;;;2.47;2.10;;;22.10;70.60;;;;;;7338250;19;110079;-85
2022/08/14 01:16:30;;;;;;;7.15;2.60;;;22.00;70.70;;;;;;7336635;19;110482;-85
2022/08/14 01:21:46;;;;;;;4.38;2.55;;;21.90;71.00;;;;;;7338099;19;110518;-85
2022/08/14 01:24:23;;;;;;;4.32;2.25;;;21.80;71.30;;;;;;7338775;19;109502;-84
2022/08/14 01:27:00;;;;;;;6.65;2.70;;;21.80;71.50;;;;;;7341910;19;110449;-85
2022/08/14 01:29:29;;;;;;;4.07;2.33;;;21.70;71.90;;;;;;7336851;19;110249;-85
2022/08/14 01:32:17;;;;;;;5.47;2.70;;;21.60;72.40;;;;;;7337677;19;112543;-85
2022/08/14 01:34:54;;;;;;;5.95;2.65;;;21.50;73.60;;;;;;7337101;19;112079;-85
2022/08/14 01:37:45;;;;;;;10.40;3.25;;;21.40;73.90;;;;;;7334999;19;110612;-85
2022/08/14 01:40:23;;;;;;;8.45;2.92;;;21.30;74.90;;;;;;7336857;19;113089;-85
2022/08/14 01:43:13;;;;;;;8.02;3.35;;;21.20;74.70;;;;;;7336778;19;111245;-85
2022/08/14 01:45:41;;;;;;;7.45;2.90;;;21.10;74.80;;;;;;7338165;19;110521;-85
2022/08/14 01:48:14;;;;;;;5.88;2.95;;;21.10;74.90;;;;;;7338155;19;110391;-87
2022/08/14 01:50:46;;;;;;;8.30;3.15;;;21.10;74.30;;;;;;7342957;19;111845;-85
2022/08/14 01:53:16;;;;;;;5.88;3.05;;;21.20;74.40;;;;;;7338001;19;109919;-85
2022/08/14 01:55:43;;;;;;;7.00;3.50;;;21.10;76.20;;;;;;7335076;19;112221;-84
2022/08/14 01:58:14;;;;;;;8.00;3.33;;;20.90;76.50;;;;;;7336953;19;109746;-85
2022/08/14 02:00:53;;;;;;;8.02;3.05;;;20.90;76.50;;;;;;7337095;19;109941;-84
2022/08/14 02:03:31;;;;;;;5.03;3.30;;;20.80;76.40;;;;;;7336941;19;112112;-85
2022/08/14 02:06:01;;;;;;;6.70;3.38;;;20.80;76.90;;;;;;7338220;19;109337;-85
2022/08/14 02:08:49;;;;;;;12.48;3.58;;;20.80;76.30;;;;;;7336088;19;113950;-88
2022/08/14 02:11:22;;;;;;;7.63;3.55;;;20.80;76.70;;;;;;7337877;19;110883;-85
2022/08/14 02:14:10;;;;;;;6.07;3.63;;;20.70;77.70;;;;;;7339443;19;110658;-85
2022/08/14 02:16:43;;;;;;;17.02;3.67;;;20.60;78.10;;;;;;7335587;19;111173;-84
2022/08/14 02:19:17;;;;;;;13.73;3.65;;;20.60;78.10;;;;;;7337063;19;111805;-87
2022/08/14 02:21:49;;;;;;;8.90;3.90;;;20.50;80.90;;;;;;7336014;19;111587;-85
2022/08/14 02:24:19;;;;;;;7.78;3.50;;;20.30;80.80;;;;;;7335014;19;115813;-85
2022/08/14 02:27:08;;;;;;;13.68;3.90;;;20.30;80.50;;;;;;7336219;19;109694;-84
2022/08/14 02:29:55;;;;;;;6.30;3.63;;;20.30;80.60;;;;;;7333034;19;112852;-85
2022/08/14 02:32:30;;;;;;;9.65;4.70;;;20.40;80.80;;;;;;7337226;19;111889;-85
2022/08/14 02:35:12;;;;;;;8.02;4.25;;;20.20;83.00;;;;;;7340925;19;109965;-85
2022/08/14 02:37:40;;;;;;;10.25;4.15;;;20.20;82.40;;;;;;7333101;19;111826;-85
2022/08/14 02:40:14;;;;;;;6.82;4.00;;;20.20;82.50;;;;;;7337396;19;109687;-85
2022/08/14 02:42:42;;;;;;;10.85;4.00;;;20.10;82.40;;;;;;7343605;19;110304;-84
2022/08/14 02:45:21;;;;;;;10.30;3.40;;;20.10;82.60;;;;;;7343382;19;111295;-85
2022/08/14 02:47:48;;;;;;;6.00;3.80;;;20.10;81.90;;;;;;7343565;19;109344;-84
2022/08/14 02:50:23;;;;;;;6.30;3.95;;;20.10;81.70;;;;;;7340885;19;111128;-85
2022/08/14 02:52:53;;;;;;;34.72;5.35;;;20.10;81.80;;;;;;7342050;19;111030;-85
2022/08/14 02:55:33;;;;;;;23.60;4.80;;;20.10;83.60;;;;;;7341227;19;109280;-85
2022/08/14 02:58:00;;;;;;;28.40;4.88;;;19.90;83.80;;;;;;7347986;19;110547;-85
2022/08/14 03:00:31;;;;;;;12.52;4.40;;;19.90;84.00;;;;;;7344054;19;110033;-85
2022/08/14 03:03:00;;;;;;;6.60;4.97;;;19.90;84.10;;;;;;7342630;19;110234;-85
2022/08/14 03:05:29;;;;;;;7.60;4.88;;;19.90;85.00;;;;;;7342472;19;110761;-85
2022/08/14 03:08:07;;;;;;;7.50;4.53;;;19.80;85.00;;;;;;7341017;19;109494;-84
2022/08/14 03:10:35;;;;;;;12.50;4.53;;;19.70;85.80;;;;;;7342959;19;111943;-85
2022/08/14 03:13:08;;;;;;;8.48;4.18;;;19.60;86.60;;;;;;7340572;19;110354;-85
2022/08/14 03:15:54;;;;;;;9.88;4.57;;;19.60;86.40;;;;;;7341715;19;109231;-85
2022/08/14 03:18:26;;;;;;;6.20;4.15;;;19.50;86.10;;;;;;7339273;19;110005;-84
2022/08/14 03:21:06;;;;;;;6.90;4.82;;;19.60;86.40;;;;;;7347424;19;111581;-84
2022/08/14 03:23:35;;;;;;;7.13;4.47;;;19.60;86.20;;;;;;7340417;19;111060;-84
2022/08/14 03:26:07;;;;;;;7.10;4.75;;;19.50;86.20;;;;;;7340292;19;111767;-84
2022/08/14 03:28:46;;;;;;;4.93;4.45;;;19.50;86.80;;;;;;7341947;19;109359;-84
2022/08/14 03:31:14;;;;;;;6.47;4.85;;;19.50;87.00;;;;;;7341709;19;110850;-85
2022/08/14 03:33:42;;;;;;;9.45;4.35;;;19.50;87.30;;;;;;7341106;19;111181;-84
2022/08/14 03:36:13;;;;;;;10.80;5.57;;;19.40;87.80;;;;;;7341657;19;109728;-84
2022/08/14 03:39:04;;;;;;;5.97;4.47;;;19.30;89.20;;;;;;7341670;19;113012;-84
2022/08/14 03:41:49;;;;;;;15.43;5.65;;;19.20;88.70;;;;;;7340104;19;111203;-85
2022/08/14 03:44:16;;;;;;;14.77;5.68;;;19.10;89.90;;;;;;7347367;19;109563;-85
2022/08/14 03:47:04;;;;;;;12.65;5.57;;;19.10;90.60;;;;;;7338786;19;113167;-84
2022/08/14 03:49:31;;;;;;;15.68;5.28;;;18.90;90.90;;;;;;7341321;19;111509;-85
2022/08/14 03:52:03;;;;;;;10.48;5.07;;;18.90;90.70;;;;;;7340108;19;110193;-85
2022/08/14 03:54:50;;;;;;;13.05;5.63;;;19.00;90.60;;;;;;7341381;19;112635;-85
2022/08/14 03:57:19;;;;;;;9.85;5.53;;;19.00;90.70;;;;;;7340284;19;111098;-85
2022/08/14 03:59:48;;;;;;;15.98;6.13;;;18.90;90.60;;;;;;7339710;19;110447;-84
2022/08/14 04:02:15;;;;;;;11.85;5.70;;;18.90;91.10;;;;;;7340005;19;111001;-85
2022/08/14 04:05:04;;;;;;;8.52;5.05;;;18.80;91.20;;;;;;7340663;19;109774;-84
2022/08/14 04:07:40;;;;;;;10.15;5.35;;;18.80;91.20;;;;;;7347095;19;111625;-85
2022/08/14 04:10:26;;;;;;;10.93;5.43;;;18.80;91.40;;;;;;7340723;19;111071;-84
2022/08/14 04:13:00;;;;;;;11.80;5.50;;;18.80;91.60;;;;;;7341413;19;111690;-85
2022/08/14 04:15:29;;;;;;;8.77;5.40;;;18.70;91.70;;;;;;7339363;19;110490;-85
2022/08/14 04:17:57;;;;;;;13.88;5.15;;;18.70;91.60;;;;;;7338453;19;109583;-85
2022/08/14 04:20:26;;;;;;;11.23;5.85;;;18.70;91.50;;;;;;7342355;19;114051;-85
2022/08/14 04:22:53;;;;;;;16.95;5.82;;;18.80;91.40;;;;;;7338551;19;110424;-85
2022/08/14 04:25:21;;;;;;;8.88;5.68;;;18.80;91.30;;;;;;7341211;19;109550;-84
2022/08/14 04:27:48;;;;;;;13.55;5.57;;;18.80;91.30;;;;;;7340956;19;110879;-84
2022/08/14 04:30:29;;;;;;;11.15;6.00;;;18.80;91.20;;;;;;7345664;19;110488;-84
2022/08/14 04:32:58;;;;;;;11.27;5.85;;;18.80;91.20;;;;;;7340180;19;114382;-84
2022/08/14 04:35:37;;;;;;;9.82;6.00;;;18.80;91.10;;;;;;7341522;19;111379;-85
2022/08/14 04:43:56;;;;;;;9.00;6.63;;;18.80;92.10;;;;;;7341063;19;110464;-84
2022/08/14 04:46:24;;;;;;;8.95;7.10;;;18.70;92.30;;;;;;7336586;19;110616;-85
2022/08/14 04:49:12;;;;;;;15.73;6.63;;;18.60;93.00;;;;;;7339936;19;112117;-84
2022/08/14 04:51:41;;;;;;;15.18;6.47;;;18.60;93.20;;;;;;7343835;19;111148;-85
2022/08/14 04:54:17;;;;;;;25.95;6.93;;;18.60;93.20;;;;;;7339663;19;110433;-85
2022/08/14 04:56:44;;;;;;;26.48;7.28;;;18.70;92.80;;;;;;7337386;19;111139;-84
2022/08/14 04:59:11;;;;;;;18.52;6.88;;;18.70;93.50;;;;;;7339438;19;110561;-84
2022/08/14 05:01:41;;;;;;;13.75;6.90;;;18.70;93.10;;;;;;7339712;19;109918;-85
2022/08/14 05:04:18;;;;;;;24.15;7.00;;;18.80;93.00;;;;;;7337123;19;110454;-85
2022/08/14 05:06:47;;;;;;;17.30;6.90;;;18.90;93.10;;;;;;7339708;19;109327;-84
2022/08/14 05:09:15;;;;;;;15.10;6.45;;;19.00;93.30;;;;;;7340121;19;109633;-84
2022/08/14 05:11:43;;;;;;;7.35;5.88;;;19.00;93.10;;;;;;7340292;19;109928;-85
2022/08/14 05:14:11;;;;;;;15.15;7.28;;;19.10;93.30;;;;;;7343566;19;109426;-85
2022/08/14 05:16:58;;;;;;;;;;;19.20;93.40;;;;;;7339176;19;112453;-84
2022/08/14 05:19:28;;;;;;;17.63;7.40;;;19.10;93.70;;;;;;7343541;19;109581;-85
2022/08/14 05:21:59;;;;;;;11.10;7.13;;;19.20;93.30;;;;;;7337978;19;112321;-85
2022/08/14 05:24:47;;;;;;;9.70;7.00;;;19.30;93.20;;;;;;7338866;19;111867;-84
2022/08/14 05:27:19;;;;;;;12.18;7.20;;;19.40;93.30;;;;;;7338150;19;109948;-85
2022/08/14 05:29:54;;;;;;;14.48;7.10;;;19.40;93.40;;;;;;7336718;19;110631;-84
2022/08/14 05:32:24;;;;;;;10.15;7.25;;;19.40;93.40;;;;;;7337461;19;110471;-84
2022/08/14 05:34:58;;;;;;;11.77;7.07;;;19.50;93.20;;;;;;7337888;19;109594;-84
2022/08/14 05:37:27;;;;;;;13.90;7.20;;;19.60;93.30;;;;;;7340524;19;110613;-85
2022/08/14 05:39:57;;;;;;;11.20;7.50;;;19.60;93.40;;;;;;7335868;19;109451;-85
2022/08/14 05:42:24;;;;;;;16.60;7.53;;;19.70;93.40;;;;;;7337468;19;112326;-84
2022/08/14 05:44:56;;;;;;;11.25;7.25;;;19.80;93.50;;;;;;7336272;19;111413;-85
2022/08/14 05:47:23;;;;;;;15.38;7.45;;;19.90;93.40;;;;;;7336287;19;109316;-85
2022/08/14 05:50:09;;;;;;;10.45;7.32;;;20.00;93.40;;;;;;7337583;19;110926;-84
2022/08/14 05:52:44;;;;;;;11.55;7.35;;;20.10;93.00;;;;;;7339424;19;111402;-84
2022/08/14 05:55:12;;;;;;;11.35;7.05;;;20.20;93.10;;;;;;7338827;19;109348;-84
2022/08/14 05:57:49;;;;;;;13.30;8.13;;;20.30;93.10;;;;;;7335484;19;113528;-85
2022/08/14 06:00:19;;;;;;;17.73;7.47;;;20.40;93.20;;;;;;7344058;19;111916;-84
2022/08/14 06:02:57;;;;;;;10.73;7.87;;;20.50;93.00;;;;;;7339767;19;110664;-84
2022/08/14 06:05:26;;;;;;;10.80;6.85;;;20.60;92.70;;;;;;7335187;19;112862;-85
2022/08/14 06:07:56;;;;;;;11.93;7.00;;;20.70;92.70;;;;;;7336829;19;111085;-85
2022/08/14 06:10:24;;;;;;;13.13;7.40;;;20.80;92.70;;;;;;7338037;19;110193;-84
2022/08/14 06:12:55;;;;;;;11.93;6.43;;;20.90;92.60;;;;;;7338260;19;110857;-85
2022/08/14 06:15:24;;;;;;;14.02;5.72;;;21.00;92.50;;;;;;7341346;19;109850;-85
2022/08/14 06:17:56;;;;;;;13.63;5.88;;;21.10;92.70;;;;;;7344389;19;110570;-84
2022/08/14 06:20:26;;;;;;;15.52;6.70;;;21.20;92.60;;;;;;7344555;19;111485;-84
2022/08/14 06:22:54;;;;;;;8.68;6.43;;;21.30;92.60;;;;;;7348623;19;111229;-84
2022/08/14 06:25:22;;;;;;;10.00;5.97;;;21.40;92.50;;;;;;7342699;19;110504;-84
2022/08/14 06:27:51;;;;;;;23.92;6.93;;;21.50;92.30;;;;;;7343900;19;109494;-85
2022/08/14 06:30:20;;;;;;;14.40;6.10;;;21.60;92.30;;;;;;7344966;19;110643;-85
2022/08/14 06:32:49;;;;;;;14.52;6.15;;;21.80;92.10;;;;;;7342610;19;111233;-85
2022/08/14 06:35:22;;;;;;;19.38;5.75;;;21.90;92.00;;;;;;7343506;19;109614;-85
2022/08/14 06:37:52;;;;;;;23.08;5.72;;;22.00;91.80;;;;;;7343989;19;110382;-84
2022/08/14 06:40:27;;;;;;;28.35;5.70;;;22.20;91.30;;;;;;7341528;19;111076;-85
2022/08/14 06:42:58;;;;;;;18.95;4.90;;;22.30;91.10;;;;;;7343294;19;109560;-85
2022/08/14 06:45:30;;;;;;;7.05;4.22;;;22.40;90.60;;;;;;7346535;19;111054;-85
2022/08/14 06:47:57;;;;;;;13.73;4.15;;;22.60;90.30;;;;;;7344667;19;109337;-86
2022/08/14 06:50:26;;;;;;;11.43;3.60;;;22.70;89.30;;;;;;7343740;19;110765;-86
2022/08/14 06:52:57;;;;;;;5.88;2.97;;;22.70;89.00;;;;;;7341502;19;111330;-86
2022/08/14 06:55:24;;;;;;;5.15;2.85;;;22.90;86.60;;;;;;7343536;19;109359;-85
2022/08/14 06:57:55;;;;;;;8.48;3.13;;;23.00;87.30;;;;;;7341943;19;110665;-85
2022/08/14 07:00:26;;;;;;;5.93;2.78;;;23.10;87.10;;;;;;7342645;19;113274;-85
2022/08/14 07:05:48;;;;;;;9.35;3.13;;;23.30;85.20;;;;;;7348859;19;110412;-86
2022/08/14 07:08:29;;;;;;;7.90;2.55;;;23.50;84.00;;;;;;7340599;19;109423;-85
2022/08/14 07:10:59;;;;;;;4.60;2.63;;;23.60;83.40;;;;;;7343179;19;114404;-86
2022/08/14 07:13:27;;;;;;;3.20;2.67;;;23.70;83.40;;;;;;7343368;19;114522;-86
2022/08/14 07:15:58;;;;;;;5.35;2.50;;;23.90;83.20;;;;;;7341255;19;109381;-87
2022/08/14 07:18:33;;;;;;;8.20;2.38;;;24.20;83.10;;;;;;7339522;19;109780;-86
2022/08/14 07:21:02;;;;;;;6.45;2.53;;;24.30;81.50;;;;;;7342217;19;110563;-86
2022/08/14 07:23:29;;;;;;;3.05;2.30;;;24.40;81.20;;;;;;7339382;19;109489;-86
2022/08/14 07:25:58;;;;;;;8.07;2.30;;;24.60;79.50;;;;;;7338671;19;111997;-88
2022/08/14 07:28:33;;;;;;;4.35;2.58;;;24.70;80.50;;;;;;7345664;19;111549;-87
2022/08/14 07:31:09;;;;;;;3.85;2.80;;;24.80;79.70;;;;;;7341146;19;110163;-88
2022/08/14 07:33:41;;;;;;;3.58;2.25;;;24.90;78.40;;;;;;7342151;19;111258;-87
2022/08/14 07:36:12;;;;;;;7.43;2.33;;;25.10;77.10;;;;;;7341538;19;109597;-87
2022/08/14 07:38:55;;;;;;;3.78;1.90;;;25.10;75.00;;;;;;7339159;19;110586;-88
2022/08/14 07:41:22;;;;;;;6.75;2.20;;;25.20;74.60;;;;;;7340011;19;112335;-85
2022/08/14 07:43:49;;;;;;;6.18;2.38;;;25.30;73.90;;;;;;7339736;19;109430;-86
2022/08/14 07:46:22;;;;;;;6.95;2.25;;;25.40;74.00;;;;;;7338546;19;110868;-86
2022/08/14 07:48:57;;;;;;;6.50;2.28;;;25.60;73.30;;;;;;7341842;19;112117;-85
2022/08/14 07:51:24;;;;;;;4.70;2.33;;;25.70;72.60;;;;;;7345237;19;109448;-85
2022/08/14 07:54:03;;;;;;;4.80;2.60;;;25.80;72.80;;;;;;7341673;19;111262;-85
2022/08/14 07:56:37;;;;;;;3.25;2.25;;;26.00;71.80;;;;;;7342013;19;109441;-86
2022/08/14 07:59:16;;;;;;;10.05;2.63;;;26.10;70.00;;;;;;7338903;19;109711;-85
2022/08/14 08:01:44;;;;;;;5.97;2.10;;;26.10;71.00;;;;;;7341610;19;112191;-85
2022/08/14 08:04:23;;;;;;;10.02;2.25;;;26.20;70.70;;;;;;7342305;19;109480;-85
2022/08/14 08:06:53;;;;;;;6.63;2.40;;;26.40;69.50;;;;;;7340350;19;113224;-85
2022/08/14 08:09:26;;;;;;;12.10;2.70;;;26.50;70.00;;;;;;7338919;19;110993;-86
2022/08/14 08:12:01;;;;;;;18.90;2.88;;;26.60;68.50;;;;;;7341790;19;109884;-85
2022/08/14 08:14:36;;;;;;;2.92;2.00;;;26.70;67.90;;;;;;7345359;19;110851;-85
2022/08/14 08:17:24;;;;;;;4.80;2.08;;;26.80;68.90;;;;;;7340787;19;109881;-86
2022/08/14 08:19:51;;;;;;;3.25;1.90;;;27.00;68.20;;;;;;7336421;19;110622;-86
2022/08/14 08:22:20;;;;;;;3.33;2.05;;;27.20;68.30;;;;;;7338835;19;111444;-86
2022/08/14 08:24:47;;;;;;;2.33;1.98;;;27.40;68.00;;;;;;7339923;19;110254;-86
2022/08/14 08:27:18;;;;;;;4.03;1.90;;;27.60;68.10;;;;;;7340962;19;112921;-86
2022/08/14 08:29:47;;;;;;;6.70;1.92;;;27.80;67.60;;;;;;7337630;19;111298;-86
2022/08/14 08:32:17;;;;;;;4.55;2.10;;;27.90;67.10;;;;;;7340436;19;109751;-86
2022/08/14 08:34:47;;;;;;;3.85;2.42;;;28.00;65.80;;;;;;7341471;19;110841;-86
2022/08/14 08:37:15;;;;;;;4.32;1.80;;;28.10;63.90;;;;;;7342019;19;114495;-85
2022/08/14 08:39:46;;;;;;;5.40;2.00;;;28.10;63.30;;;;;;7336946;19;110848;-85
2022/08/14 08:42:27;;;;;;;3.80;2.05;;;28.20;63.50;;;;;;7338855;19;111203;-86
2022/08/14 08:45:07;;;;;;;9.98;2.15;;;28.30;62.30;;;;;;7337042;19;110687;-85
2022/08/14 08:47:39;;;;;;;2.42;1.77;;;28.40;63.50;;;;;;7340487;19;110202;-86
2022/08/14 08:50:34;;;;;;;6.63;2.10;;;28.60;64.20;;;;;;7338863;19;111991;-86
2022/08/14 08:53:05;;;;;;;6.68;2.20;;;28.80;62.40;;;;;;7337808;19;109590;-87
2022/08/14 08:55:36;;;;;;;3.20;1.90;;;28.90;62.00;;;;;;7339574;19;109535;-86
2022/08/14 08:58:08;;;;;;;4.10;2.20;;;29.00;62.80;;;;;;7338604;19;111132;-86
2022/08/14 09:00:49;;;;;;;8.18;2.30;;;29.20;60.80;;;;;;7343002;19;109121;-87
2022/08/14 09:03:24;;;;;;;5.93;2.17;;;29.30;60.50;;;;;;7337649;19;111474;-86
2022/08/14 09:06:00;;;;;;;5.35;1.85;;;29.40;60.30;;;;;;7338827;19;109233;-86
2022/08/14 09:08:32;;;;;;;3.50;1.92;;;29.50;61.40;;;;;;7336901;19;109617;-86
2022/08/14 09:11:02;;;;;;;3.33;1.77;;;29.50;61.20;;;;;;7339130;19;111583;-86
2022/08/14 09:13:49;;;;;;;8.70;2.05;;;29.60;61.10;;;;;;7337276;19;109313;-86
2022/08/14 09:16:23;;;;;;;4.38;1.73;;;29.70;61.40;;;;;;7338401;19;110480;-87
2022/08/14 09:18:52;;;;;;;7.40;2.47;;;29.80;61.30;;;;;;7336277;19;110139;-88
2022/08/14 09:21:21;;;;;;;4.05;1.88;;;29.90;60.60;;;;;;7343643;19;109617;-85
2022/08/14 09:23:53;;;;;;;3.50;1.60;;;30.00;60.50;;;;;;7339474;19;112682;-87
2022/08/14 09:26:44;;;;;;;6.47;2.42;;;29.90;59.90;;;;;;7339195;19;110748;-86
2022/08/14 09:29:15;;;;;;;3.10;1.83;;;29.90;58.60;;;;;;7338905;19;112414;-87
2022/08/14 09:31:45;;;;;;;4.65;1.67;;;29.80;58.00;;;;;;7338519;19;111446;-86
2022/08/14 09:34:27;;;;;;;12.70;2.25;;;29.90;59.20;;;;;;7338955;19;109448;-86
2022/08/14 09:37:09;;;;;;;6.65;1.90;;;30.10;59.60;;;;;;7336841;19;110220;-87
2022/08/14 09:40:05;;;;;;;6.40;1.80;;;30.40;59.20;;;;;;7334716;19;110879;-86
2022/08/14 09:42:54;;;;;;;3.40;1.58;;;30.50;58.60;;;;;;7336574;19;109869;-86
2022/08/14 09:45:46;;;;;;;2.40;1.60;;;30.60;57.70;;;;;;7342640;19;110046;-88
2022/08/14 09:48:21;;;;;;;3.23;1.73;;;30.60;58.10;;;;;;7337943;19;110151;-87
2022/08/14 09:50:57;;;;;;;4.47;1.60;;;30.60;57.10;;;;;;7343692;19;110743;-87
2022/08/14 09:53:56;;;;;;;6.00;1.63;;;30.50;57.50;;;;;;7342314;19;112051;-86
2022/08/14 09:56:45;;;;;;;3.78;1.63;;;30.60;57.30;;;;;;7346664;19;110124;-87
2022/08/14 09:59:26;;;;;;;6.13;1.65;;;30.70;57.20;;;;;;7344325;19;110843;-88
2022/08/14 10:01:58;;;;;;;3.42;1.60;;;30.70;57.30;;;;;;7342820;19;111508;-87
2022/08/14 10:04:27;;;;;;;3.75;1.70;;;30.80;56.60;;;;;;7343819;19;110004;-90
2022/08/14 10:07:04;;;;;;;6.93;1.63;;;30.80;55.60;;;;;;7344042;19;110694;-86
2022/08/14 10:09:31;;;;;;;5.43;1.80;;;30.80;56.60;;;;;;7350300;19;111368;-88
2022/08/14 10:12:00;;;;;;;4.75;1.88;;;30.90;56.00;;;;;;7346279;19;110905;-88
2022/08/14 10:14:33;;;;;;;2.83;1.65;;;30.90;56.80;;;;;;7345133;19;111510;-87
2022/08/14 10:17:04;;;;;;;1.98;1.52;;;31.00;56.80;;;;;;7346422;19;109374;-88
2022/08/14 10:19:45;;;;;;;1.73;1.63;;;31.20;55.60;;;;;;7344381;19;110273;-88
2022/08/14 10:22:12;;;;;;;5.18;1.65;;;31.20;55.60;;;;;;7343480;19;111269;-89
2022/08/14 10:25:10;;;;;;;2.60;1.50;;;31.30;55.90;;;;;;7340992;19;110585;-75
2022/08/14 10:27:38;;;;;;;5.65;1.50;;;31.50;55.80;;;;;;7344285;19;110040;-74
2022/08/14 10:30:13;;;;;;;3.10;1.30;;;31.50;53.80;;;;;;7343670;19;110136;-75
2022/08/14 10:32:48;;;;;;;5.28;1.50;;;31.50;52.70;;;;;;7346838;19;110635;-75
2022/08/14 10:35:19;;;;;;;3.40;1.48;;;31.50;52.50;;;;;;7343235;19;109997;-74
2022/08/14 10:37:53;;;;;;;1.35;1.17;;;31.60;53.60;;;;;;7343117;19;109435;-75
2022/08/14 10:40:30;;;;;;;7.57;1.20;;;31.70;52.80;;;;;;7340363;19;111092;-75
2022/08/14 10:43:25;;;;;;;6.32;1.50;;;31.80;52.80;;;;;;7343327;19;110468;-75
2022/08/14 10:46:00;;;;;;;3.28;1.33;;;31.80;51.80;;;;;;7342392;19;111213;-75
2022/08/14 10:49:02;;;;;;;6.30;1.13;;;31.80;51.00;;;;;;7344105;19;111496;-75
2022/08/14 10:51:33;;;;;;;3.75;1.15;;;31.80;51.20;;;;;;7343312;19;114677;-75
2022/08/14 10:54:08;;;;;;;;;;;31.90;50.70;;;;;;7342726;19;109177;-77
2022/08/14 10:56:56;;;;;;;7.18;1.17;;;31.90;50.30;;;;;;7350519;19;109538;-75
2022/08/14 10:59:23;;;;;;;3.25;1.00;;;31.90;50.70;;;;;;7341680;19;109953;-75
2022/08/14 11:02:36;;;;;;;4.18;1.20;;;32.10;50.40;;;;;;7342938;19;110993;-74
2022/08/14 11:05:25;;;;;;;3.15;1.05;;;32.30;48.80;;;;;;7343970;19;110822;-75
2022/08/14 11:07:54;;;;;;;4.30;1.20;;;32.40;47.80;;;;;;7343601;19;109532;-74
2022/08/14 11:10:42;;;;;;;3.60;1.13;;;32.50;48.50;;;;;;7344077;19;110521;-75
2022/08/14 11:13:14;;;;;;;2.45;1.05;;;32.60;49.10;;;;;;7344035;19;111477;-74
2022/08/14 11:15:41;;;;;;;1.10;1.00;;;32.60;48.00;;;;;;7343043;19;109693;-74
2022/08/14 11:18:11;;;;;;;4.93;1.10;;;32.50;48.20;;;;;;7348210;19;109893;-75
2022/08/14 11:20:58;;;;;;;;;;;32.70;48.90;;;;;;7340696;19;110032;-75
2022/08/14 11:23:34;;;;;;;3.40;1.20;;;32.80;48.00;;;;;;7344381;19;111915;-75
2022/08/14 11:26:07;;;;;;;1.52;1.02;;;32.90;48.00;;;;;;7339847;19;110731;-75
2022/08/14 11:28:42;;;;;;;4.03;1.20;;;33.10;46.80;;;;;;7342165;19;109347;-74
2022/08/14 11:31:19;;;;;;;2.13;1.10;;;33.30;46.90;;;;;;7342111;19;112079;-74
2022/08/14 11:33:51;;;;;;;8.05;1.10;;;33.40;45.40;;;;;;7341788;19;111167;-74
2022/08/14 11:36:27;;;;;;;1.70;1.17;;;33.50;45.40;;;;;;7341789;19;110328;-74
2022/08/14 11:39:19;;;;;;;2.25;1.05;;;33.50;45.40;;;;;;7341603;19;111513;-73
2022/08/14 11:42:06;;;;;;;2.80;1.10;;;33.70;45.30;;;;;;7346206;19;110216;-74
2022/08/14 11:44:59;;;;;;;5.80;1.20;;;33.60;45.20;;;;;;7342004;19;111941;-74
2022/08/14 11:47:27;;;;;;;6.63;1.30;;;33.70;45.90;;;;;;7341659;19;111643;-74
2022/08/14 11:50:22;;;;;;;1.85;1.15;;;33.80;45.80;;;;;;7341826;19;109488;-74
2022/08/14 11:53:01;;;;;;;1.55;1.20;;;34.10;45.60;;;;;;7341637;19;113773;-73
2022/08/14 11:55:43;;;;;;;2.78;1.40;;;34.20;45.50;;;;;;7341380;19;111070;-74
2022/08/14 11:58:11;;;;;;;3.72;1.23;;;34.10;45.30;;;;;;7338950;19;109340;-75
2022/08/14 12:00:53;;;;;;;2.80;1.15;;;34.10;45.30;;;;;;7338736;19;110504;-74
2022/08/14 12:03:20;;;;;;;1.40;1.30;;;34.10;45.30;;;;;;7339747;19;110530;-76
2022/08/14 12:06:12;;;;;;;1.60;1.25;;;34.30;46.30;;;;;;7346680;19;110219;-74
2022/08/14 12:08:59;;;;;;;5.53;1.65;;;34.50;45.40;;;;;;7340362;19;110416;-76
2022/08/14 12:11:38;;;;;;;3.50;1.27;;;34.40;44.90;;;;;;7338888;19;109670;-74
2022/08/14 12:14:11;;;;;;;3.35;1.42;;;34.30;45.40;;;;;;7340895;19;111392;-74
2022/08/14 12:17:07;;;;;;;2.47;1.70;;;34.40;45.60;;;;;;7340987;19;113151;-74
2022/08/14 12:19:52;;;;;;;4.13;1.30;;;34.60;46.10;;;;;;7340663;19;109769;-74
2022/08/14 12:22:40;;;;;;;3.83;1.60;;;34.80;44.80;;;;;;7339886;19;113141;-74
2022/08/14 12:25:18;;;;;;;4.23;1.50;;;34.80;44.00;;;;;;7341451;19;111167;-75
2022/08/14 12:27:51;;;;;;;1.75;1.40;;;34.80;45.40;;;;;;7340807;19;109364;-75
2022/08/14 12:30:31;;;;;;;5.05;1.42;;;35.00;44.00;;;;;;7345012;19;110621;-73
2022/08/14 12:33:17;;;;;;;1.98;1.33;;;35.00;43.40;;;;;;7340592;19;109574;-74
2022/08/14 12:35:45;;;;;;;5.07;1.50;;;35.10;44.30;;;;;;7340252;19;110428;-74
2022/08/14 12:38:13;;;;;;;3.13;1.38;;;35.20;43.10;;;;;;7337753;19;114674;-74
2022/08/14 12:40:51;;;;;;;2.97;1.42;;;35.10;42.90;;;;;;7339279;19;109337;-74
2022/08/14 12:43:21;;;;;;;4.13;1.50;;;35.10;43.20;;;;;;7339988;19;109889;-74
2022/08/14 12:45:53;;;;;;;3.20;1.70;;;35.20;44.10;;;;;;7339212;19;111339;-74
2022/08/14 12:48:23;;;;;;;2.55;1.50;;;35.30;43.20;;;;;;7339796;19;109871;-74
2022/08/14 12:50:58;;;;;;;1.50;1.40;;;35.20;42.70;;;;;;7339186;19;111627;-74
2022/08/14 12:53:35;;;;;;;4.03;1.88;;;35.30;44.40;;;;;;7345632;19;111145;-76
2022/08/14 12:56:06;;;;;;;3.25;1.50;;;35.40;42.30;;;;;;7340434;19;110297;-74
2022/08/14 12:58:57;;;;;;;2.97;1.40;;;35.40;43.20;;;;;;7337304;19;113228;-74
2022/08/14 13:01:29;;;;;;;2.75;1.27;;;35.40;42.30;;;;;;7338000;19;109566;-74
2022/08/14 13:04:17;;;;;;;4.13;1.50;;;35.50;42.40;;;;;;7339655;19;109583;-74
2022/08/14 13:06:46;;;;;;;1.33;1.23;;;35.50;43.10;;;;;;7338804;19;111289;-74
2022/08/14 13:09:18;;;;;;;2.80;1.40;;;35.70;43.40;;;;;;7337872;19;110393;-75
2022/08/14 13:11:51;;;;;;;3.85;1.27;;;35.90;43.80;;;;;;7339230;19;110404;-75
2022/08/14 13:14:25;;;;;;;1.30;1.20;;;36.20;42.80;;;;;;7338951;19;111324;-74
2022/08/14 13:16:56;;;;;;;1.85;1.38;;;36.10;41.80;;;;;;7343768;19;109448;-74
2022/08/14 13:19:25;;;;;;;3.08;1.58;;;36.00;41.80;;;;;;7339124;19;110210;-74
2022/08/14 13:21:55;;;;;;;2.78;1.20;;;36.00;42.70;;;;;;7339088;19;109888;-75
2022/08/14 13:24:37;;;;;;;4.72;1.60;;;36.10;41.10;;;;;;7335878;19;109529;-74
2022/08/14 13:27:06;;;;;;;5.35;1.60;;;36.00;41.70;;;;;;7338609;19;112543;-74